Time,TemperatureF,DewpointF,PressureIn,WindDirection,WindDirectionDegrees,WindSpeedMPH,WindSpeedGustMPH,Humidity,HourlyPrecipIn,Conditions,Clouds,dailyrainin,SoftwareType,DateUTC
2013-03-26 00:00:00,36.5,34.4,29.63,WNW,298,1.0,2.0,92,0.00,,OVC080,0.00,VWS V14.01,2013-03-26 04:00:00,
2013-03-26 00:05:00,36.5,34.4,29.63,WNW,298,1.0,5.0,92,0.00,,-RA,0.00,VWS V14.01,2013-03-26 04:05:00,
2013-03-26 00:10:00,36.4,34.3,29.63,NW,323,2.0,5.0,92,0.00,,-RA,0.00,VWS V14.01,2013-03-26 04:10:00,
2013-03-26 00:15:00,36.4,34.3,29.63,NW,309,0.0,5.0,92,0.00,,-RA,0.00,VWS V14.01,2013-03-26 04:15:00,
2013-03-26 00:20:00,36.4,34.3,29.64,WNW,300,2.0,5.0,92,0.00,,-RA,0.00,VWS V14.01,2013-03-26 04:20:00,
2013-03-26 00:26:00,36.4,34.3,29.64,NW,319,4.0,5.0,92,0.00,,-RA,0.00,VWS V14.01,2013-03-26 04:26:00,
2013-03-26 00:31:00,36.4,34.3,29.64,NW,322,2.0,4.0,92,0.00,,-RA,0.00,VWS V14.01,2013-03-26 04:31:00,
2013-03-26 00:36:00,36.4,34.3,29.64,NNW,331,4.0,4.0,92,0.00,,-RA,0.00,VWS V14.01,2013-03-26 04:36:00,
2013-03-26 00:41:00,36.4,34.0,29.65,NNW,336,6.0,9.0,91,0.00,,-RA,0.00,VWS V14.01,2013-03-26 04:41:00,
2013-03-26 00:46:00,36.4,34.0,29.65,NW,320,3.0,9.0,91,0.00,,-RA,0.00,VWS V14.01,2013-03-26 04:46:00,
2013-03-26 00:51:00,36.4,34.0,29.65,WNW,284,5.0,9.0,91,0.00,,-RA,0.00,VWS V14.01,2013-03-26 04:51:00,
2013-03-26 00:56:00,36.4,34.0,29.65,WNW,302,0.0,9.0,91,0.00,,-RA,0.00,VWS V14.01,2013-03-26 04:56:00,
2013-03-26 01:01:00,36.4,34.0,29.65,NNW,344,1.0,4.0,91,0.00,,-RA,0.00,VWS V14.01,2013-03-26 05:01:00,
2013-03-26 01:06:00,36.3,34.2,29.65,NW,317,0.0,4.0,92,0.00,,-RA,0.00,VWS V14.01,2013-03-26 05:06:00,
2013-03-26 01:11:00,36.4,34.3,29.66,WNW,301,0.0,4.0,92,0.00,,-RA,0.00,VWS V14.01,2013-03-26 05:11:00,
2013-03-26 01:16:00,36.3,34.2,29.66,NW,305,0.0,4.0,92,0.00,,-RA,0.00,VWS V14.01,2013-03-26 05:16:00,
2013-03-26 01:21:00,36.3,34.2,29.66,NW,306,0.0,4.0,92,0.01,,-RA,0.01,VWS V14.01,2013-03-26 05:21:00,
2013-03-26 01:26:00,36.3,34.2,29.66,WNW,299,1.0,4.0,92,0.01,,-RA,0.01,VWS V14.01,2013-03-26 05:26:00,
2013-03-26 01:31:00,36.3,34.2,29.66,WNW,298,1.0,3.0,92,0.01,,-RA,0.01,VWS V14.01,2013-03-26 05:31:00,
2013-03-26 01:36:00,36.2,34.4,29.66,WNW,300,1.0,3.0,93,0.01,,-RA,0.01,VWS V14.01,2013-03-26 05:36:00,
2013-03-26 01:41:00,36.2,34.4,29.66,WNW,298,0.0,3.0,93,0.01,,-RA,0.01,VWS V14.01,2013-03-26 05:41:00,
2013-03-26 01:46:00,36.1,34.3,29.66,WNW,301,1.0,3.0,93,0.01,,-RA,0.01,VWS V14.01,2013-03-26 05:46:00,
2013-03-26 01:51:00,36.0,34.2,29.65,WNW,301,0.0,4.0,93,0.01,,-RA,0.01,VWS V14.01,2013-03-26 05:51:00,
2013-03-26 01:56:00,35.9,34.1,29.66,WNW,301,0.0,4.0,93,0.01,,-RA,0.01,VWS V14.01,2013-03-26 05:56:00,
2013-03-26 02:02:00,35.8,34.0,29.66,NW,305,0.0,2.0,93,0.01,,OVC050,0.01,VWS V14.01,2013-03-26 06:02:00,
2013-03-26 02:07:00,35.7,33.9,29.66,WNW,300,1.0,4.0,93,0.01,,OVC050,0.01,VWS V14.01,2013-03-26 06:07:00,
2013-03-26 02:12:00,35.6,33.8,29.66,West,279,2.0,5.0,93,0.01,,OVC050,0.01,VWS V14.01,2013-03-26 06:12:00,
2013-03-26 02:17:00,35.6,33.8,29.66,WNW,287,4.0,5.0,93,0.01,,OVC050,0.01,VWS V14.01,2013-03-26 06:17:00,
2013-03-26 02:22:00,35.6,33.8,29.66,WNW,290,2.0,5.0,93,0.01,,OVC050,0.01,VWS V14.01,2013-03-26 06:22:00,
2013-03-26 02:27:00,35.5,33.7,29.66,WNW,301,3.0,5.0,93,0.01,,OVC050,0.01,VWS V14.01,2013-03-26 06:27:00,
2013-03-26 02:32:00,35.4,33.6,29.66,WNW,294,3.0,4.0,93,0.00,,OVC050,0.01,VWS V14.01,2013-03-26 06:32:00,
2013-03-26 02:37:00,35.4,33.6,29.66,WNW,297,2.0,4.0,93,0.00,,OVC050,0.01,VWS V14.01,2013-03-26 06:37:00,
2013-03-26 02:42:00,35.3,33.5,29.66,WNW,294,1.0,4.0,93,0.00,,OVC050,0.01,VWS V14.01,2013-03-26 06:42:00,
2013-03-26 02:47:00,35.3,33.5,29.66,WNW,293,0.0,4.0,93,0.00,,OVC050,0.01,VWS V14.01,2013-03-26 06:47:00,
2013-03-26 02:52:00,35.3,33.5,29.66,WNW,298,0.0,4.0,93,0.00,,OVC050,0.01,VWS V14.01,2013-03-26 06:52:00,
2013-03-26 02:57:00,35.2,33.7,29.67,WNW,297,3.0,4.0,94,0.00,,OVC050,0.01,VWS V14.01,2013-03-26 06:57:00,
2013-03-26 03:02:00,35.3,33.8,29.67,West,273,0.0,3.0,94,0.00,,OVC060,0.01,VWS V14.01,2013-03-26 07:02:00,
2013-03-26 03:07:00,35.3,33.8,29.67,WNW,291,0.0,3.0,94,0.00,,OVC060,0.01,VWS V14.01,2013-03-26 07:07:00,
2013-03-26 03:12:00,35.3,33.8,29.67,WNW,295,0.0,4.0,94,0.00,,OVC060,0.01,VWS V14.01,2013-03-26 07:12:00,
2013-03-26 03:17:00,35.4,33.8,29.67,NW,308,3.0,4.0,94,0.00,,OVC060,0.01,VWS V14.01,2013-03-26 07:17:00,
2013-03-26 03:22:00,35.4,33.8,29.67,NW,316,1.0,4.0,94,0.00,,OVC060,0.01,VWS V14.01,2013-03-26 07:22:00,
2013-03-26 03:27:00,35.5,34.0,29.67,WNW,300,1.0,4.0,94,0.00,,OVC060,0.01,VWS V14.01,2013-03-26 07:27:00,
2013-03-26 03:32:00,35.5,34.0,29.67,WNW,294,0.0,2.0,94,0.00,,OVC060,0.01,VWS V14.01,2013-03-26 07:32:00,
2013-03-26 03:37:00,35.5,34.0,29.67,NW,313,0.0,3.0,94,0.00,,OVC060,0.01,VWS V14.01,2013-03-26 07:37:00,
2013-03-26 03:42:00,35.5,34.0,29.68,WNW,292,3.0,4.0,94,0.00,,OVC060,0.01,VWS V14.01,2013-03-26 07:42:00,
2013-03-26 03:47:00,35.5,34.0,29.68,West,266,0.0,4.0,94,0.00,,OVC060,0.01,VWS V14.01,2013-03-26 07:47:00,
2013-03-26 03:53:00,35.6,33.8,29.68,NW,309,0.0,4.0,93,0.00,,OVC060,0.01,VWS V14.01,2013-03-26 07:53:00,
2013-03-26 03:58:00,35.6,33.8,29.68,WNW,291,1.0,4.0,93,0.00,,OVC060,0.01,VWS V14.01,2013-03-26 07:58:00,
2013-03-26 04:03:00,35.6,33.8,29.68,WNW,295,1.0,2.0,93,0.00,,OVC090,0.01,VWS V14.01,2013-03-26 08:03:00,
2013-03-26 04:08:00,35.6,33.8,29.68,NW,314,1.0,4.0,93,0.00,,OVC090,0.01,VWS V14.01,2013-03-26 08:08:00,
2013-03-26 04:13:00,35.6,33.8,29.68,WNW,292,0.0,4.0,93,0.00,,OVC090,0.01,VWS V14.01,2013-03-26 08:13:00,
2013-03-26 04:18:00,35.6,33.8,29.68,WNW,292,0.0,4.0,93,0.00,,OVC090,0.01,VWS V14.01,2013-03-26 08:18:00,
2013-03-26 04:23:00,35.5,33.7,29.68,NW,324,1.0,4.0,93,0.00,,OVC090,0.01,VWS V14.01,2013-03-26 08:23:00,
2013-03-26 04:28:00,35.5,33.7,29.68,NNW,334,1.0,4.0,93,0.00,,OVC090,0.01,VWS V14.01,2013-03-26 08:28:00,
2013-03-26 04:33:00,35.5,33.7,29.68,WNW,296,1.0,4.0,93,0.00,,OVC090,0.01,VWS V14.01,2013-03-26 08:33:00,
2013-03-26 04:38:00,35.6,33.8,29.69,WNW,303,1.0,4.0,93,0.00,,OVC090,0.01,VWS V14.01,2013-03-26 08:38:00,
2013-03-26 04:43:00,35.6,33.8,29.69,NW,322,0.0,4.0,93,0.00,,OVC090,0.01,VWS V14.01,2013-03-26 08:43:00,
2013-03-26 04:48:00,35.6,33.5,29.69,WNW,300,0.0,4.0,92,0.00,,OVC090,0.01,VWS V14.01,2013-03-26 08:48:00,
2013-03-26 04:53:00,35.6,33.5,29.69,NW,326,2.0,4.0,92,0.00,,OVC090,0.01,VWS V14.01,2013-03-26 08:53:00,
2013-03-26 04:58:00,35.6,33.5,29.69,NW,326,0.0,4.0,92,0.00,,OVC090,0.01,VWS V14.01,2013-03-26 08:58:00,
2013-03-26 05:03:00,35.5,33.7,29.69,NW,311,1.0,2.0,93,0.00,,OVC095,0.01,VWS V14.01,2013-03-26 09:03:00,
2013-03-26 05:08:00,35.5,33.7,29.69,NW,323,2.0,3.0,93,0.00,,OVC095,0.01,VWS V14.01,2013-03-26 09:08:00,
2013-03-26 05:13:00,35.4,33.6,29.70,WNW,288,0.0,3.0,93,0.00,,OVC095,0.01,VWS V14.01,2013-03-26 09:13:00,
2013-03-26 05:18:00,35.3,33.2,29.70,NW,311,2.0,3.0,92,0.00,,OVC095,0.01,VWS V14.01,2013-03-26 09:18:00,
2013-03-26 05:23:00,35.3,33.2,29.70,NW,314,2.0,3.0,92,0.00,,OVC095,0.01,VWS V14.01,2013-03-26 09:23:00,
2013-03-26 05:28:00,35.3,33.2,29.70,WNW,297,0.0,3.0,92,0.00,,OVC095,0.01,VWS V14.01,2013-03-26 09:28:00,
2013-03-26 05:33:00,35.2,33.1,29.70,WNW,294,0.0,3.0,92,0.00,,OVC095,0.01,VWS V14.01,2013-03-26 09:33:00,
2013-03-26 05:38:00,35.1,33.0,29.71,WNW,291,0.0,3.0,92,0.00,,OVC095,0.01,VWS V14.01,2013-03-26 09:38:00,
2013-03-26 05:43:00,35.0,32.9,29.71,NW,325,2.0,3.0,92,0.00,,OVC095,0.01,VWS V14.01,2013-03-26 09:43:00,
2013-03-26 05:48:00,34.8,33.0,29.71,NNW,329,0.0,3.0,93,0.00,,OVC095,0.01,VWS V14.01,2013-03-26 09:48:00,
2013-03-26 05:53:00,34.7,32.9,29.71,NNW,329,0.0,3.0,93,0.00,,OVC095,0.01,VWS V14.01,2013-03-26 09:53:00,
2013-03-26 05:58:00,34.6,32.8,29.71,NNW,329,0.0,3.0,93,0.00,,OVC095,0.01,VWS V14.01,2013-03-26 09:58:00,
2013-03-26 06:03:00,34.5,32.7,29.72,NNW,329,0.0,0.0,93,0.00,,,0.01,VWS V14.01,2013-03-26 10:03:00,
2013-03-26 06:08:00,34.4,32.6,29.72,NNW,329,0.0,1.0,93,0.00,,,0.01,VWS V14.01,2013-03-26 10:08:00,
2013-03-26 06:13:00,34.3,32.5,29.72,NNW,329,0.0,1.0,93,0.00,,,0.01,VWS V14.01,2013-03-26 10:13:00,
2013-03-26 06:18:00,34.2,32.4,29.72,NNW,329,0.0,1.0,93,0.00,,,0.01,VWS V14.01,2013-03-26 10:18:00,
2013-03-26 06:23:00,34.1,32.3,29.72,NNW,329,0.0,1.0,93,0.00,,,0.01,VWS V14.01,2013-03-26 10:23:00,
2013-03-26 06:28:00,34.0,32.2,29.72,NNW,329,0.0,1.0,93,0.00,,,0.01,VWS V14.01,2013-03-26 10:28:00,
2013-03-26 06:33:00,33.9,32.1,29.72,NNW,329,0.0,0.0,93,0.00,,,0.01,VWS V14.01,2013-03-26 10:33:00,
2013-03-26 06:38:00,33.9,32.1,29.73,NNW,329,0.0,0.0,93,0.00,,,0.01,VWS V14.01,2013-03-26 10:38:00,
2013-03-26 06:43:00,33.8,32.3,29.73,NNW,329,0.0,0.0,94,0.00,,,0.01,VWS V14.01,2013-03-26 10:43:00,
2013-03-26 06:48:00,33.8,32.3,29.73,NNW,329,0.0,0.0,94,0.00,,,0.01,VWS V14.01,2013-03-26 10:48:00,
2013-03-26 06:53:00,33.7,32.2,29.73,NNW,329,0.0,0.0,94,0.00,,,0.01,VWS V14.01,2013-03-26 10:53:00,
2013-03-26 06:58:00,33.7,32.2,29.73,NNW,329,0.0,0.0,94,0.00,,,0.01,VWS V14.01,2013-03-26 10:58:00,
2013-03-26 07:03:00,33.7,32.2,29.74,NNW,329,0.0,0.0,94,0.00,,,0.01,VWS V14.01,2013-03-26 11:03:00,
2013-03-26 07:08:00,33.7,32.2,29.74,NNW,329,0.0,0.0,94,0.00,,,0.01,VWS V14.01,2013-03-26 11:08:00,
2013-03-26 07:13:00,33.7,32.4,29.74,NNW,329,0.0,0.0,95,0.00,,,0.01,VWS V14.01,2013-03-26 11:13:00,
2013-03-26 07:18:00,33.8,32.5,29.74,NNW,329,0.0,0.0,95,0.00,,,0.01,VWS V14.01,2013-03-26 11:18:00,
2013-03-26 07:23:00,33.8,32.5,29.74,NNW,329,0.0,0.0,95,0.00,,,0.01,VWS V14.01,2013-03-26 11:23:00,
2013-03-26 07:28:00,33.9,32.6,29.74,NNW,329,0.0,0.0,95,0.00,,,0.01,VWS V14.01,2013-03-26 11:28:00,
2013-03-26 07:33:00,34.1,32.8,29.75,NNW,329,0.0,1.0,95,0.00,,,0.01,VWS V14.01,2013-03-26 11:33:00,
2013-03-26 07:38:00,34.3,33.3,29.75,NNW,329,0.0,1.0,96,0.00,,,0.01,VWS V14.01,2013-03-26 11:38:00,
2013-03-26 07:43:00,34.5,33.5,29.75,NNW,329,0.0,1.0,96,0.00,,,0.01,VWS V14.01,2013-03-26 11:43:00,
2013-03-26 07:48:00,34.8,33.8,29.75,NNW,329,0.0,1.0,96,0.00,,,0.01,VWS V14.01,2013-03-26 11:48:00,
2013-03-26 07:53:00,35.0,33.7,29.75,West,275,2.0,3.0,95,0.00,,,0.01,VWS V14.01,2013-03-26 11:53:00,
2013-03-26 07:58:00,35.2,33.9,29.75,West,280,0.0,3.0,95,0.00,,,0.01,VWS V14.01,2013-03-26 11:58:00,
2013-03-26 08:03:00,35.3,34.0,29.75,NNW,342,0.0,3.0,95,0.00,,OVC095,0.01,VWS V14.01,2013-03-26 12:03:00,
2013-03-26 08:09:00,35.6,34.0,29.76,WNW,286,0.0,3.0,94,0.00,,OVC095,0.01,VWS V14.01,2013-03-26 12:09:00,
2013-03-26 08:14:00,35.8,34.0,29.76,WNW,286,0.0,3.0,93,0.00,,OVC095,0.01,VWS V14.01,2013-03-26 12:14:00,
2013-03-26 08:19:00,36.1,34.3,29.76,WNW,296,0.0,3.0,93,0.00,,OVC095,0.01,VWS V14.01,2013-03-26 12:19:00,
2013-03-26 08:24:00,36.4,34.3,29.76,WNW,294,0.0,4.0,92,0.00,,OVC095,0.01,VWS V14.01,2013-03-26 12:24:00,
2013-03-26 08:29:00,36.7,34.3,29.76,WNW,294,2.0,4.0,91,0.00,,OVC095,0.01,VWS V14.01,2013-03-26 12:29:00,
2013-03-26 08:34:00,37.1,34.7,29.76,WNW,294,0.0,3.0,91,0.00,,OVC095,0.01,VWS V14.01,2013-03-26 12:34:00,
2013-03-26 08:39:00,37.5,34.8,29.76,WNW,292,2.0,3.0,90,0.00,,OVC095,0.01,VWS V14.01,2013-03-26 12:39:00,
2013-03-26 08:44:00,37.9,35.0,29.77,WNW,290,3.0,5.0,89,0.00,,OVC095,0.01,VWS V14.01,2013-03-26 12:44:00,
2013-03-26 08:49:00,38.3,35.1,29.77,NW,308,3.0,5.0,88,0.00,,OVC095,0.01,VWS V14.01,2013-03-26 12:49:00,
2013-03-26 08:54:00,38.7,35.2,29.77,NW,326,3.0,5.0,87,0.00,,OVC095,0.01,VWS V14.01,2013-03-26 12:54:00,
2013-03-26 08:59:00,39.1,35.3,29.77,West,280,5.0,5.0,86,0.00,,OVC095,0.01,VWS V14.01,2013-03-26 12:59:00,
2013-03-26 09:04:00,39.4,34.7,29.77,WNW,290,2.0,6.0,83,0.00,,OVC095,0.01,VWS V14.01,2013-03-26 13:04:00,
2013-03-26 09:09:00,39.6,35.2,29.77,WNW,300,2.0,6.0,84,0.00,,OVC095,0.01,VWS V14.01,2013-03-26 13:09:00,
2013-03-26 09:14:00,39.8,35.1,29.78,NW,324,0.0,6.0,83,0.00,,OVC095,0.01,VWS V14.01,2013-03-26 13:14:00,
2013-03-26 09:19:00,40.1,35.1,29.78,NW,304,0.0,6.0,82,0.00,,OVC095,0.01,VWS V14.01,2013-03-26 13:19:00,
2013-03-26 09:24:00,40.5,35.1,29.78,NW,310,0.0,6.0,81,0.00,,OVC095,0.01,VWS V14.01,2013-03-26 13:24:00,
2013-03-26 09:29:00,40.8,35.4,29.78,NW,310,1.0,6.0,81,0.00,,OVC095,0.01,VWS V14.01,2013-03-26 13:29:00,
2013-03-26 09:34:00,41.0,34.3,29.78,WNW,302,2.0,5.0,77,0.00,,OVC095,0.01,VWS V14.01,2013-03-26 13:34:00,
2013-03-26 09:39:00,41.1,34.1,29.78,WSW,247,1.0,5.0,76,0.00,,OVC095,0.01,VWS V14.01,2013-03-26 13:39:00,
2013-03-26 09:44:00,41.1,34.5,29.78,NW,305,2.0,5.0,77,0.00,,OVC095,0.01,VWS V14.01,2013-03-26 13:44:00,
2013-03-26 09:49:00,41.3,35.0,29.78,NNW,328,3.0,5.0,78,0.00,,OVC095,0.01,VWS V14.01,2013-03-26 13:49:00,
2013-03-26 09:54:00,41.7,35.0,29.78,WNW,290,2.0,6.0,77,0.00,,OVC095,0.01,VWS V14.01,2013-03-26 13:54:00,
2013-03-26 09:59:00,42.0,35.0,29.78,NNW,341,3.0,7.0,76,0.00,,OVC095,0.01,VWS V14.01,2013-03-26 13:59:00,
2013-03-26 10:04:00,42.4,35.4,29.78,West,261,3.0,6.0,76,0.00,,OVC095,0.01,VWS V14.01,2013-03-26 14:04:00,
2013-03-26 10:09:00,42.7,35.7,29.78,WNW,303,6.0,9.0,76,0.00,,OVC095,0.01,VWS V14.01,2013-03-26 14:09:00,
2013-03-26 10:14:00,43.2,35.1,29.78,WSW,250,3.0,9.0,73,0.00,,OVC095,0.01,VWS V14.01,2013-03-26 14:14:00,
2013-03-26 10:19:00,43.5,35.4,29.78,NW,304,3.0,9.0,73,0.00,,OVC095,0.01,VWS V14.01,2013-03-26 14:19:00,
2013-03-26 10:24:00,44.0,35.2,29.78,WNW,282,5.0,9.0,71,0.00,,OVC095,0.01,VWS V14.01,2013-03-26 14:24:00,
2013-03-26 10:29:00,44.4,35.2,29.78,NW,311,3.0,9.0,70,0.00,,OVC095,0.01,VWS V14.01,2013-03-26 14:29:00,
2013-03-26 10:34:00,44.6,35.1,29.78,WNW,283,2.0,6.0,69,0.00,,OVC095,0.01,VWS V14.01,2013-03-26 14:34:00,
2013-03-26 10:39:00,45.3,35.4,29.78,WNW,297,4.0,11.0,68,0.00,,OVC095,0.01,VWS V14.01,2013-03-26 14:39:00,
2013-03-26 10:44:00,45.8,35.5,29.78,WNW,300,5.0,11.0,67,0.00,,OVC095,0.01,VWS V14.01,2013-03-26 14:44:00,
2013-03-26 10:49:00,46.3,36.0,29.78,West,273,7.0,11.0,67,0.00,,OVC095,0.01,VWS V14.01,2013-03-26 14:49:00,
2013-03-26 10:54:00,46.3,35.2,29.78,WNW,283,3.0,11.0,65,0.00,,OVC095,0.01,VWS V14.01,2013-03-26 14:54:00,
2013-03-26 10:59:00,46.8,35.7,29.78,West,278,4.0,11.0,65,0.00,,OVC095,0.01,VWS V14.01,2013-03-26 14:59:00,
2013-03-26 11:04:00,47.2,35.3,29.78,WNW,294,6.0,9.0,63,0.00,,SCT100,0.01,VWS V14.01,2013-03-26 15:04:00,
2013-03-26 11:09:00,47.0,35.5,29.78,NW,306,3.0,9.0,64,0.00,,SCT100,0.01,VWS V14.01,2013-03-26 15:09:00,
2013-03-26 11:14:00,47.5,35.9,29.78,WNW,289,6.0,9.0,64,0.00,,SCT100,0.01,VWS V14.01,2013-03-26 15:14:00,
2013-03-26 11:19:00,48.2,35.8,29.78,WNW,303,4.0,9.0,62,0.00,,SCT100,0.01,VWS V14.01,2013-03-26 15:19:00,
2013-03-26 11:24:00,48.5,35.7,29.78,NNW,329,4.0,10.0,61,0.00,,SCT100,0.01,VWS V14.01,2013-03-26 15:24:00,
2013-03-26 11:29:00,48.9,35.6,29.78,West,281,4.0,10.0,60,0.00,,SCT100,0.01,VWS V14.01,2013-03-26 15:29:00,
2013-03-26 11:34:00,49.3,35.2,29.78,WNW,298,6.0,12.0,58,0.00,,SCT100,0.01,VWS V14.01,2013-03-26 15:34:00,
2013-03-26 11:39:00,49.0,34.5,29.78,NW,318,4.0,12.0,57,0.00,,SCT100,0.01,VWS V14.01,2013-03-26 15:39:00,
2013-03-26 11:44:00,48.5,34.0,29.78,NW,313,6.0,13.0,57,0.00,,SCT100,0.01,VWS V14.01,2013-03-26 15:44:00,
2013-03-26 11:49:00,49.0,34.5,29.78,NW,315,6.0,13.0,57,0.00,,SCT100,0.01,VWS V14.01,2013-03-26 15:49:00,
2013-03-26 11:54:00,49.3,34.7,29.78,West,277,4.0,13.0,57,0.00,,SCT100,0.01,VWS V14.01,2013-03-26 15:54:00,
2013-03-26 11:59:00,49.4,34.4,29.78,WNW,290,5.0,13.0,56,0.00,,SCT100,0.01,VWS V14.01,2013-03-26 15:59:00,
2013-03-26 12:04:00,49.9,35.3,29.78,NW,311,4.0,9.0,57,0.00,,BKN044,0.01,VWS V14.01,2013-03-26 16:04:00,
2013-03-26 12:09:00,50.6,36.4,29.78,NNW,339,2.0,9.0,58,0.00,,BKN044,0.01,VWS V14.01,2013-03-26 16:09:00,
2013-03-26 12:14:00,51.0,35.0,29.78,WNW,291,7.0,9.0,54,0.00,,BKN044,0.01,VWS V14.01,2013-03-26 16:14:00,
2013-03-26 12:19:00,50.8,33.8,29.78,NW,309,10.0,14.0,52,0.00,,BKN044,0.01,VWS V14.01,2013-03-26 16:19:00,
2013-03-26 12:24:00,50.9,34.4,29.78,WNW,302,2.0,14.0,53,0.00,,BKN044,0.01,VWS V14.01,2013-03-26 16:24:00,
2013-03-26 12:29:00,51.6,34.1,29.78,NW,321,6.0,14.0,51,0.00,,BKN044,0.01,VWS V14.01,2013-03-26 16:29:00,
2013-03-26 12:34:00,51.9,33.9,29.77,West,271,1.0,8.0,50,0.00,,BKN044,0.01,VWS V14.01,2013-03-26 16:34:00,
2013-03-26 12:39:00,51.7,34.2,29.78,NW,322,4.0,9.0,51,0.00,,BKN044,0.01,VWS V14.01,2013-03-26 16:39:00,
2013-03-26 12:44:00,51.5,33.5,29.77,NW,318,5.0,12.0,50,0.00,,BKN044,0.01,VWS V14.01,2013-03-26 16:44:00,
2013-03-26 12:49:00,51.8,34.3,29.77,WNW,293,3.0,12.0,51,0.00,,BKN044,0.01,VWS V14.01,2013-03-26 16:49:00,
2013-03-26 12:54:00,52.5,33.4,29.77,NW,321,4.0,12.0,48,0.00,,BKN044,0.01,VWS V14.01,2013-03-26 16:54:00,
2013-03-26 13:00:00,52.4,33.8,29.77,NNW,339,5.0,7.0,49,0.00,,BKN044,0.01,VWS V14.01,2013-03-26 17:00:00,
2013-03-26 13:05:00,51.7,32.7,29.77,WNW,302,7.0,10.0,48,0.00,,BKN090,0.01,VWS V14.01,2013-03-26 17:05:00,
2013-03-26 13:10:00,51.7,33.2,29.77,WNW,290,3.0,10.0,49,0.00,,BKN090,0.01,VWS V14.01,2013-03-26 17:10:00,
2013-03-26 13:15:00,52.0,32.4,29.77,WNW,294,3.0,10.0,47,0.00,,BKN090,0.01,VWS V14.01,2013-03-26 17:15:00,
2013-03-26 13:20:00,52.1,30.9,29.77,NW,318,5.0,10.0,44,0.00,,BKN090,0.01,VWS V14.01,2013-03-26 17:20:00,
2013-03-26 13:25:00,52.3,30.5,29.77,WNW,288,1.0,10.0,43,0.00,,BKN090,0.01,VWS V14.01,2013-03-26 17:25:00,
2013-03-26 13:30:00,52.0,30.8,29.77,West,281,0.0,0.0,44,0.00,,BKN090,0.01,VWS V14.01,2013-03-26 17:30:00,
2013-03-26 13:35:00,51.3,30.7,29.77,NW,316,4.0,4.0,45,0.00,,BKN090,0.01,VWS V14.01,2013-03-26 17:35:00,
2013-03-26 13:40:00,51.4,31.9,29.76,WNW,286,3.0,5.0,47,0.00,,BKN090,0.01,VWS V14.01,2013-03-26 17:40:00,
2013-03-26 13:45:00,51.5,31.4,29.77,NNW,336,1.0,5.0,46,0.00,,BKN090,0.01,VWS V14.01,2013-03-26 17:45:00,
2013-03-26 13:50:00,51.6,31.0,29.77,WNW,298,5.0,11.0,45,0.00,,BKN090,0.01,VWS V14.01,2013-03-26 17:50:00,
2013-03-26 13:55:00,51.5,30.3,29.77,NNW,329,3.0,11.0,44,0.00,,BKN090,0.01,VWS V14.01,2013-03-26 17:55:00,
2013-03-26 14:00:00,51.6,29.3,29.76,NW,306,7.0,7.0,42,0.00,,OVC090,0.01,VWS V14.01,2013-03-26 18:00:00,
2013-03-26 14:05:00,51.3,29.6,29.76,NW,311,8.0,11.0,43,0.00,,OVC090,0.01,VWS V14.01,2013-03-26 18:05:00,
2013-03-26 14:10:00,51.3,29.6,29.76,West,279,4.0,13.0,43,0.00,,OVC090,0.01,VWS V14.01,2013-03-26 18:10:00,
2013-03-26 14:15:00,52.4,30.6,29.76,NW,324,10.0,14.0,43,0.00,,OVC090,0.01,VWS V14.01,2013-03-26 18:15:00,
2013-03-26 14:20:00,53.3,29.0,29.76,WNW,286,9.0,14.0,39,0.00,,OVC090,0.01,VWS V14.01,2013-03-26 18:20:00,
2013-03-26 14:25:00,53.4,29.7,29.76,West,259,2.0,14.0,40,0.00,,OVC090,0.01,VWS V14.01,2013-03-26 18:25:00,
2013-03-26 14:30:00,53.2,29.5,29.76,WNW,288,6.0,9.0,40,0.00,,OVC090,0.01,VWS V14.01,2013-03-26 18:30:00,
2013-03-26 14:35:00,52.4,29.4,29.77,WNW,283,4.0,11.0,41,0.00,,OVC090,0.01,VWS V14.01,2013-03-26 18:35:00,
2013-03-26 14:40:00,51.7,28.8,29.77,WNW,296,3.0,11.0,41,0.00,,OVC090,0.01,VWS V14.01,2013-03-26 18:40:00,
2013-03-26 14:45:00,52.1,29.1,29.77,WNW,282,8.0,11.0,41,0.00,,OVC090,0.01,VWS V14.01,2013-03-26 18:45:00,
2013-03-26 14:50:00,52.4,28.8,29.77,NW,309,6.0,13.0,40,0.00,,OVC090,0.01,VWS V14.01,2013-03-26 18:50:00,
2013-03-26 14:55:00,52.5,28.9,29.76,WNW,302,4.0,13.0,40,0.00,,OVC090,0.01,VWS V14.01,2013-03-26 18:55:00,
2013-03-26 15:00:00,52.4,30.0,29.76,NW,309,2.0,6.0,42,0.00,,OVC090,0.01,VWS V14.01,2013-03-26 19:00:00,
2013-03-26 15:05:00,51.9,29.5,29.76,WNW,288,2.0,8.0,42,0.00,,OVC090,0.01,VWS V14.01,2013-03-26 19:05:00,
2013-03-26 15:10:00,51.7,29.4,29.77,NNW,328,2.0,10.0,42,0.00,,OVC090,0.01,VWS V14.01,2013-03-26 19:10:00,
2013-03-26 15:15:00,51.5,28.6,29.77,NW,309,2.0,13.0,41,0.00,,OVC090,0.01,VWS V14.01,2013-03-26 19:15:00,
2013-03-26 15:20:00,51.5,29.2,29.77,NNW,342,5.0,13.0,42,0.00,,OVC090,0.01,VWS V14.01,2013-03-26 19:20:00,
2013-03-26 15:25:00,51.5,28.6,29.77,NW,311,3.0,13.0,41,0.00,,OVC090,0.01,VWS V14.01,2013-03-26 19:25:00,
2013-03-26 15:30:00,51.4,28.5,29.77,NW,307,8.0,10.0,41,0.00,,OVC090,0.01,VWS V14.01,2013-03-26 19:30:00,
2013-03-26 15:35:00,51.2,28.3,29.77,West,279,5.0,11.0,41,0.00,,OVC090,0.01,VWS V14.01,2013-03-26 19:35:00,
2013-03-26 15:40:00,51.0,28.1,29.77,NNW,348,3.0,11.0,41,0.00,,OVC090,0.01,VWS V14.01,2013-03-26 19:40:00,
2013-03-26 15:45:00,50.8,28.5,29.77,NW,304,3.0,11.0,42,0.00,,OVC090,0.01,VWS V14.01,2013-03-26 19:45:00,
2013-03-26 15:50:00,50.7,29.0,29.77,WNW,301,3.0,11.0,43,0.00,,OVC090,0.01,VWS V14.01,2013-03-26 19:50:00,
2013-03-26 15:55:00,50.7,28.5,29.77,NNW,336,6.0,11.0,42,0.00,,OVC090,0.01,VWS V14.01,2013-03-26 19:55:00,
2013-03-26 16:00:00,50.7,27.3,29.77,NW,304,3.0,7.0,40,0.00,,BKN100,0.01,VWS V14.01,2013-03-26 20:00:00,
2013-03-26 16:05:00,50.7,26.7,29.77,WNW,295,6.0,10.0,39,0.00,,BKN100,0.01,VWS V14.01,2013-03-26 20:05:00,
2013-03-26 16:10:00,50.7,27.3,29.77,NNW,330,1.0,11.0,40,0.00,,BKN100,0.01,VWS V14.01,2013-03-26 20:10:00,
2013-03-26 16:15:00,50.7,27.3,29.77,WNW,296,4.0,11.0,40,0.00,,BKN100,0.01,VWS V14.01,2013-03-26 20:15:00,
2013-03-26 16:20:00,50.7,27.3,29.77,NW,308,1.0,11.0,40,0.00,,BKN100,0.01,VWS V14.01,2013-03-26 20:20:00,
2013-03-26 16:25:00,50.9,28.1,29.77,NW,313,2.0,11.0,41,0.00,,BKN100,0.01,VWS V14.01,2013-03-26 20:25:00,
2013-03-26 16:30:00,51.1,28.2,29.77,NW,318,2.0,4.0,41,0.00,,BKN100,0.01,VWS V14.01,2013-03-26 20:30:00,
2013-03-26 16:35:00,51.2,28.3,29.77,NW,325,5.0,6.0,41,0.00,,BKN100,0.01,VWS V14.01,2013-03-26 20:35:00,
2013-03-26 16:40:00,51.3,27.8,29.77,NNW,348,1.0,7.0,40,0.00,,BKN100,0.01,VWS V14.01,2013-03-26 20:40:00,
2013-03-26 16:45:00,51.5,28.6,29.77,North,5,2.0,7.0,41,0.00,,BKN100,0.01,VWS V14.01,2013-03-26 20:45:00,
2013-03-26 16:50:00,52.0,28.5,29.77,NW,323,0.0,7.0,40,0.00,,BKN100,0.01,VWS V14.01,2013-03-26 20:50:00,
2013-03-26 16:55:00,52.4,28.2,29.77,NE,46,1.0,7.0,39,0.00,,BKN100,0.01,VWS V14.01,2013-03-26 20:55:00,
2013-03-26 17:00:00,52.9,28.6,29.77,NW,322,3.0,4.0,39,0.00,,OVC110,0.01,VWS V14.01,2013-03-26 21:00:00,
2013-03-26 17:05:00,53.0,28.1,29.77,NNW,340,2.0,4.0,38,0.00,,OVC110,0.01,VWS V14.01,2013-03-26 21:05:00,
2013-03-26 17:10:00,52.9,28.6,29.78,NW,316,1.0,5.0,39,0.00,,OVC110,0.01,VWS V14.01,2013-03-26 21:10:00,
2013-03-26 17:15:00,52.6,28.4,29.78,NNW,344,1.0,5.0,39,0.00,,OVC110,0.01,VWS V14.01,2013-03-26 21:15:00,
2013-03-26 17:20:00,52.4,28.8,29.78,North,355,8.0,10.0,40,0.00,,OVC110,0.01,VWS V14.01,2013-03-26 21:20:00,
2013-03-26 17:25:00,52.0,28.5,29.78,NNW,328,5.0,12.0,40,0.00,,OVC110,0.01,VWS V14.01,2013-03-26 21:25:00,
2013-03-26 17:30:00,51.6,28.1,29.79,NW,310,5.0,6.0,40,0.00,,OVC110,0.01,VWS V14.01,2013-03-26 21:30:00,
2013-03-26 17:35:00,51.2,28.3,29.79,NW,318,4.0,8.0,41,0.00,,OVC110,0.01,VWS V14.01,2013-03-26 21:35:00,
2013-03-26 17:40:00,51.1,28.8,29.79,WNW,291,8.0,8.0,42,0.00,,OVC110,0.01,VWS V14.01,2013-03-26 21:40:00,
2013-03-26 17:45:00,50.9,28.6,29.79,NW,322,11.0,15.0,42,0.00,,OVC110,0.01,VWS V14.01,2013-03-26 21:45:00,
2013-03-26 17:50:00,50.6,29.5,29.79,NNW,329,2.0,15.0,44,0.00,,OVC110,0.01,VWS V14.01,2013-03-26 21:50:00,
2013-03-26 17:55:00,50.2,29.7,29.80,NW,311,5.0,15.0,45,0.00,,OVC110,0.01,VWS V14.01,2013-03-26 21:55:00,
2013-03-26 18:00:00,49.9,29.4,29.80,NW,306,2.0,8.0,45,0.00,,FEW120,0.01,VWS V14.01,2013-03-26 22:00:00,
2013-03-26 18:05:00,49.6,30.2,29.80,WNW,283,2.0,8.0,47,0.00,,FEW120,0.01,VWS V14.01,2013-03-26 22:05:00,
2013-03-26 18:10:00,49.4,30.5,29.80,WNW,299,6.0,8.0,48,0.00,,FEW120,0.01,VWS V14.01,2013-03-26 22:10:00,
2013-03-26 18:15:00,49.3,29.9,29.80,West,281,0.0,8.0,47,0.00,,FEW120,0.01,VWS V14.01,2013-03-26 22:15:00,
2013-03-26 18:21:00,49.2,29.9,29.80,NW,307,1.0,8.0,47,0.00,,FEW120,0.01,VWS V14.01,2013-03-26 22:21:00,
2013-03-26 18:26:00,49.0,30.2,29.80,WNW,292,4.0,8.0,48,0.00,,FEW120,0.01,VWS V14.01,2013-03-26 22:26:00,
2013-03-26 18:31:00,49.0,29.7,29.81,WNW,295,3.0,7.0,47,0.00,,FEW120,0.01,VWS V14.01,2013-03-26 22:31:00,
2013-03-26 18:36:00,48.8,29.5,29.81,West,275,2.0,7.0,47,0.00,,FEW120,0.01,VWS V14.01,2013-03-26 22:36:00,
2013-03-26 18:41:00,48.8,29.5,29.81,WNW,302,2.0,7.0,47,0.00,,FEW120,0.01,VWS V14.01,2013-03-26 22:41:00,
2013-03-26 18:46:00,48.7,29.9,29.82,NW,323,2.0,7.0,48,0.00,,FEW120,0.01,VWS V14.01,2013-03-26 22:46:00,
2013-03-26 18:51:00,48.6,30.3,29.82,WNW,292,6.0,7.0,49,0.00,,FEW120,0.01,VWS V14.01,2013-03-26 22:51:00,
2013-03-26 18:56:00,48.4,29.1,29.81,West,277,2.0,8.0,47,0.00,,FEW120,0.01,VWS V14.01,2013-03-26 22:56:00,
2013-03-26 19:01:00,48.3,29.0,29.82,NW,319,6.0,9.0,47,0.00,,OVC100,0.01,VWS V14.01,2013-03-26 23:01:00,
2013-03-26 19:06:00,48.4,29.1,29.82,NW,307,4.0,9.0,47,0.00,,OVC100,0.01,VWS V14.01,2013-03-26 23:06:00,
2013-03-26 19:11:00,48.4,29.1,29.82,WNW,300,3.0,9.0,47,0.00,,OVC100,0.01,VWS V14.01,2013-03-26 23:11:00,
2013-03-26 19:16:00,48.3,29.5,29.82,West,261,3.0,9.0,48,0.00,,OVC100,0.01,VWS V14.01,2013-03-26 23:16:00,
2013-03-26 19:21:00,48.1,29.9,29.83,NW,316,4.0,9.0,49,0.00,,OVC100,0.01,VWS V14.01,2013-03-26 23:21:00,
2013-03-26 19:26:00,48.0,29.8,29.83,NW,304,7.0,9.0,49,0.00,,OVC100,0.01,VWS V14.01,2013-03-26 23:26:00,
2013-03-26 19:31:00,47.9,29.7,29.83,WNW,292,2.0,5.0,49,0.00,,OVC100,0.01,VWS V14.01,2013-03-26 23:31:00,
2013-03-26 19:36:00,47.8,29.6,29.83,WNW,283,1.0,5.0,49,0.00,,OVC100,0.01,VWS V14.01,2013-03-26 23:36:00,
2013-03-26 19:42:00,47.5,29.3,29.83,WNW,286,3.0,5.0,49,0.00,,OVC100,0.01,VWS V14.01,2013-03-26 23:42:00,
2013-03-26 19:47:00,47.3,29.6,29.84,WNW,303,1.0,5.0,50,0.00,,OVC100,0.01,VWS V14.01,2013-03-26 23:47:00,
2013-03-26 19:52:00,46.9,29.2,29.84,WNW,298,1.0,5.0,50,0.00,,OVC100,0.01,VWS V14.01,2013-03-26 23:52:00,
2013-03-26 19:57:00,46.4,29.8,29.84,West,273,1.0,5.0,52,0.00,,OVC100,0.01,VWS V14.01,2013-03-26 23:57:00,
2013-03-26 20:02:00,46.0,29.8,29.84,WNW,290,1.0,1.0,53,0.00,,OVC080,0.01,VWS V14.01,2013-03-27 00:02:00,
2013-03-26 20:07:00,45.7,30.0,29.84,NW,309,0.0,3.0,54,0.00,,OVC080,0.01,VWS V14.01,2013-03-27 00:07:00,
2013-03-26 20:12:00,45.6,30.4,29.85,WNW,288,1.0,3.0,55,0.00,,OVC080,0.01,VWS V14.01,2013-03-27 00:12:00,
2013-03-26 20:17:00,45.6,30.8,29.85,West,263,6.0,8.0,56,0.00,,OVC080,0.01,VWS V14.01,2013-03-27 00:17:00,
2013-03-26 20:22:00,46.0,31.2,29.86,WNW,294,7.0,12.0,56,0.00,,OVC080,0.01,VWS V14.01,2013-03-27 00:22:00,
2013-03-26 20:27:00,46.3,31.0,29.85,WNW,294,6.0,12.0,55,0.00,,OVC080,0.01,VWS V14.01,2013-03-27 00:27:00,
2013-03-26 20:32:00,46.5,30.8,29.85,West,279,6.0,8.0,54,0.00,,OVC080,0.01,VWS V14.01,2013-03-27 00:32:00,
2013-03-26 20:37:00,46.4,30.7,29.86,WNW,296,1.0,8.0,54,0.00,,OVC080,0.01,VWS V14.01,2013-03-27 00:37:00,
2013-03-26 20:42:00,46.1,30.9,29.86,WNW,297,2.0,8.0,55,0.00,,OVC080,0.01,VWS V14.01,2013-03-27 00:42:00,
2013-03-26 20:47:00,45.8,31.0,29.86,WNW,302,2.0,8.0,56,0.00,,OVC080,0.01,VWS V14.01,2013-03-27 00:47:00,
2013-03-26 20:52:00,45.5,30.7,29.86,West,265,2.0,8.0,56,0.00,,OVC080,0.01,VWS V14.01,2013-03-27 00:52:00,
2013-03-26 20:58:00,45.2,30.9,29.86,NW,306,1.0,8.0,57,0.00,,OVC080,0.01,VWS V14.01,2013-03-27 00:58:00,
2013-03-26 21:03:00,45.0,31.1,29.87,WNW,303,0.0,3.0,58,0.00,,BKN110,0.01,VWS V14.01,2013-03-27 01:03:00,
2013-03-26 21:08:00,44.7,30.9,29.87,WNW,301,3.0,4.0,58,0.00,,BKN110,0.01,VWS V14.01,2013-03-27 01:08:00,
2013-03-26 21:13:00,44.5,30.7,29.87,WNW,294,0.0,4.0,58,0.00,,BKN110,0.01,VWS V14.01,2013-03-27 01:13:00,
2013-03-26 21:18:00,44.3,30.9,29.87,WNW,283,0.0,4.0,59,0.00,,BKN110,0.01,VWS V14.01,2013-03-27 01:18:00,
2013-03-26 21:23:00,44.2,30.8,29.87,NW,325,4.0,7.0,59,0.00,,BKN110,0.01,VWS V14.01,2013-03-27 01:23:00,
2013-03-26 21:28:00,44.2,30.8,29.88,NW,313,5.0,7.0,59,0.00,,BKN110,0.01,VWS V14.01,2013-03-27 01:28:00,
2013-03-26 21:33:00,44.1,30.7,29.88,West,272,3.0,4.0,59,0.00,,BKN110,0.01,VWS V14.01,2013-03-27 01:33:00,
2013-03-26 21:38:00,44.0,30.6,29.88,NNW,334,3.0,6.0,59,0.00,,BKN110,0.01,VWS V14.01,2013-03-27 01:38:00,
2013-03-26 21:43:00,43.8,30.8,29.88,NNW,338,1.0,6.0,60,0.00,,BKN110,0.01,VWS V14.01,2013-03-27 01:43:00,
2013-03-26 21:48:00,43.7,30.7,29.88,WNW,284,5.0,6.0,60,0.00,,BKN110,0.01,VWS V14.01,2013-03-27 01:48:00,
2013-03-26 21:53:00,43.6,31.0,29.89,NNW,342,4.0,7.0,61,0.00,,BKN110,0.01,VWS V14.01,2013-03-27 01:53:00,
2013-03-26 21:58:00,43.4,30.9,29.89,WNW,292,4.0,7.0,61,0.00,,BKN110,0.01,VWS V14.01,2013-03-27 01:58:00,
2013-03-26 22:03:00,43.2,30.7,29.89,NW,321,3.0,7.0,61,0.00,,CLR,0.01,VWS V14.01,2013-03-27 02:03:00,
2013-03-26 22:08:00,43.0,30.9,29.89,NW,311,4.0,7.0,62,0.00,,CLR,0.01,VWS V14.01,2013-03-27 02:08:00,
2013-03-26 22:13:00,42.9,30.8,29.89,WNW,284,3.0,7.0,62,0.00,,CLR,0.01,VWS V14.01,2013-03-27 02:13:00,
2013-03-26 22:18:00,42.7,31.0,29.89,West,275,2.0,7.0,63,0.00,,CLR,0.01,VWS V14.01,2013-03-27 02:18:00,
2013-03-26 22:23:00,42.5,30.8,29.89,WNW,285,3.0,7.0,63,0.00,,CLR,0.01,VWS V14.01,2013-03-27 02:23:00,
2013-03-26 22:28:00,42.4,30.7,29.90,WNW,301,1.0,7.0,63,0.00,,CLR,0.01,VWS V14.01,2013-03-27 02:28:00,
2013-03-26 22:33:00,42.2,30.9,29.89,NW,324,0.0,3.0,64,0.00,,CLR,0.01,VWS V14.01,2013-03-27 02:33:00,
2013-03-26 22:38:00,42.0,30.7,29.89,WNW,292,2.0,4.0,64,0.00,,CLR,0.01,VWS V14.01,2013-03-27 02:38:00,
2013-03-26 22:43:00,41.9,31.0,29.89,West,271,2.0,4.0,65,0.00,,CLR,0.01,VWS V14.01,2013-03-27 02:43:00,
2013-03-26 22:48:00,41.7,30.8,29.89,NNW,327,1.0,4.0,65,0.00,,CLR,0.01,VWS V14.01,2013-03-27 02:48:00,
2013-03-26 22:53:00,41.5,31.0,29.89,WNW,296,2.0,5.0,66,0.00,,CLR,0.01,VWS V14.01,2013-03-27 02:53:00,
2013-03-26 22:58:00,41.4,30.9,29.90,WSW,257,1.0,5.0,66,0.00,,CLR,0.01,VWS V14.01,2013-03-27 02:58:00,
2013-03-26 23:03:00,41.2,31.1,29.90,WNW,288,0.0,4.0,67,0.00,,CLR,0.01,VWS V14.01,2013-03-27 03:03:00,
2013-03-26 23:08:00,40.8,31.1,29.89,WNW,300,0.0,4.0,68,0.00,,CLR,0.01,VWS V14.01,2013-03-27 03:08:00,
2013-03-26 23:13:00,40.5,30.8,29.90,WNW,296,1.0,4.0,68,0.00,,CLR,0.01,VWS V14.01,2013-03-27 03:13:00,
2013-03-26 23:18:00,40.2,30.9,29.90,WNW,301,1.0,4.0,69,0.00,,CLR,0.01,VWS V14.01,2013-03-27 03:18:00,
2013-03-26 23:23:00,39.9,30.9,29.90,WNW,301,1.0,4.0,70,0.00,,CLR,0.01,VWS V14.01,2013-03-27 03:23:00,
2013-03-26 23:28:00,39.7,31.1,29.90,WSW,241,2.0,4.0,71,0.00,,CLR,0.01,VWS V14.01,2013-03-27 03:28:00,
2013-03-26 23:33:00,39.5,30.9,29.90,WSW,238,0.0,2.0,71,0.00,,CLR,0.01,VWS V14.01,2013-03-27 03:33:00,
2013-03-26 23:38:00,39.4,31.1,29.90,NW,308,0.0,3.0,72,0.00,,CLR,0.01,VWS V14.01,2013-03-27 03:38:00,
2013-03-26 23:43:00,39.3,31.0,29.90,NW,323,0.0,3.0,72,0.00,,CLR,0.01,VWS V14.01,2013-03-27 03:43:00,
2013-03-26 23:48:00,39.2,31.3,29.90,WNW,288,0.0,3.0,73,0.00,,CLR,0.01,VWS V14.01,2013-03-27 03:48:00,
2013-03-26 23:53:00,39.1,31.2,29.90,WNW,291,3.0,5.0,73,0.00,,CLR,0.01,VWS V14.01,2013-03-27 03:53:00,
2013-03-26 23:58:00,39.1,31.2,29.90,NW,312,0.0,5.0,73,0.00,,CLR,0.01,VWS V14.01,2013-03-27 03:58:00,